Time;durP1;ratioP1;P1;durP2;ratioP2;P2;SDS_P1;SDS_P2;PMS_P1;PMS_P2;Temp;Humidity;BMP_temperature;BMP_pressure;BME280_temperature;BME280_humidity;BME280_pressure;Samples;Min_cycle;Max_cycle;Signal;HPM_P1;HPM_P2
2023/10/23 00:00:29;;;;;;;;;13.33;9.33;;;;;13.72;70.55;100707.31;5109179;27;45399;-72
2023/10/23 00:02:55;;;;;;;;;15.00;13.00;;;;;13.72;70.16;100709.97;5099950;27;45521;-74
2023/10/23 00:05:20;;;;;;;;;15.67;14.67;;;;;13.51;70.51;100681.91;5100257;27;45295;-74
2023/10/23 00:07:45;;;;;;;;;11.00;10.00;;;;;13.63;70.49;100709.97;5099070;27;55804;-73
2023/10/23 00:10:11;;;;;;;;;14.00;12.00;;;;;13.57;70.36;100697.25;5081366;27;46158;-72
2023/10/23 00:12:36;;;;;;;;;12.00;11.00;;;;;13.59;70.41;100697.09;5099879;27;45363;-72
2023/10/23 00:15:02;;;;;;;;;12.00;11.00;;;;;13.22;70.24;100636.97;5099725;27;45416;-72
2023/10/23 00:17:27;;;;;;;;;10.33;10.33;;;;;13.50;70.26;100695.41;5109542;27;47362;-72
2023/10/23 00:19:53;;;;;;;;;13.67;12.67;;;;;13.50;70.54;100700.75;5120139;27;45312;-73
2023/10/23 00:22:18;;;;;;;;;13.33;11.00;;;;;13.29;70.51;100662.00;5120016;27;45433;-72
2023/10/23 00:24:44;;;;;;;;;11.33;10.00;;;;;13.46;70.16;100686.91;5120347;27;45511;-72
2023/10/23 00:27:09;;;;;;;;;12.33;10.00;;;;;13.44;70.34;100688.91;5118901;27;46506;-72
2023/10/23 00:29:34;;;;;;;;;12.00;11.00;;;;;13.44;70.44;100694.25;5117288;27;45645;-72
2023/10/23 00:32:00;;;;;;;;;14.00;10.00;;;;;13.43;70.31;100695.25;5120005;27;45377;-72
2023/10/23 00:34:25;;;;;;;;;13.00;12.00;;;;;13.44;70.56;100690.75;5112608;27;46024;-71
2023/10/23 00:36:50;;;;;;;;;10.33;9.00;;;;;13.41;70.93;100694.53;5098902;27;47396;-71
2023/10/23 00:39:16;;;;;;;;;13.00;9.00;;;;;13.34;70.85;100677.50;5098976;27;45248;-72
2023/10/23 00:41:42;;;;;;;;;10.00;10.00;;;;;13.38;70.36;100684.19;5099074;27;45482;-72
2023/10/23 00:44:08;;;;;;;;;10.00;9.00;;;;;13.36;70.40;100675.50;5081359;27;45237;-72
2023/10/23 00:46:33;;;;;;;;;10.67;8.00;;;;;13.37;70.58;100671.84;5104742;27;45419;-72
2023/10/23 00:48:59;;;;;;;;;12.67;9.33;;;;;13.33;70.84;100670.50;5101084;27;45503;-72
2023/10/23 00:51:26;;;;;;;;;8.33;8.33;;;;;13.33;70.46;100682.03;5108493;27;45431;-73
2023/10/23 00:53:52;;;;;;;;;9.33;8.33;;;;;13.33;70.29;100667.84;5099084;27;45463;-72
2023/10/23 00:56:18;;;;;;;;;7.67;6.00;;;;;12.97;70.59;100609.31;5098603;27;47363;-72
2023/10/23 00:58:44;;;;;;;;;10.33;9.00;;;;;13.29;70.18;100674.50;5098580;27;45537;-72
2023/10/23 01:01:13;;;;;;;;;8.33;7.33;;;;;13.27;70.44;100681.84;5098838;27;45470;-72
2023/10/23 01:03:39;;;;;;;;;11.33;7.67;;;;;13.21;70.51;100671.81;5098987;27;45511;-71
2023/10/23 01:06:05;;;;;;;;;8.00;7.00;;;;;13.23;70.58;100685.84;5098609;27;45934;-72
2023/10/23 01:08:31;;;;;;;;;8.33;7.33;;;;;13.21;70.23;100683.31;5109674;27;45481;-73
2023/10/23 01:10:58;;;;;;;;;7.67;6.33;;;;;13.12;70.76;100673.59;5119229;27;45369;-72
2023/10/23 01:13:24;;;;;;;;;7.00;6.00;;;;;13.05;70.59;100652.06;5100981;27;45388;-72
2023/10/23 01:15:51;;;;;;;;;7.33;7.33;;;;;12.65;70.68;100587.88;5119102;27;46360;-72
2023/10/23 01:18:16;;;;;;;;;8.00;7.00;;;;;13.09;70.62;100664.06;5119163;27;45176;-72
2023/10/23 01:20:41;;;;;;;;;8.00;6.00;;;;;13.05;71.14;100641.38;5119185;27;45458;-70
2023/10/23 01:23:08;;;;;;;;;9.00;6.33;;;;;12.90;70.94;100618.16;5112773;27;45267;-71
2023/10/23 01:25:33;;;;;;;;;8.00;8.00;;;;;13.07;70.79;100650.06;5098039;27;46501;-71
2023/10/23 01:27:59;;;;;;;;;5.67;4.00;;;;;13.08;70.69;100657.06;5097922;27;45414;-71
2023/10/23 01:30:24;;;;;;;;;9.00;8.67;;;;;13.10;70.76;100644.41;5109736;27;45335;-71
2023/10/23 01:32:49;;;;;;;;;9.33;7.00;;;;;13.12;71.08;100646.06;5109857;27;45221;-71
2023/10/23 01:35:15;;;;;;;;;6.33;6.33;;;;;13.14;70.85;100636.88;5104794;27;46315;-72
2023/10/23 01:37:41;;;;;;;;;7.00;6.00;;;;;13.16;70.46;100648.25;5118476;27;45484;-71
2023/10/23 01:40:07;;;;;;;;;7.67;7.67;;;;;13.04;70.60;100620.19;5095164;27;45585;-71
2023/10/23 01:42:32;;;;;;;;;9.33;8.00;;;;;12.76;70.33;100575.06;5104588;27;45502;-72
2023/10/23 01:44:58;;;;;;;;;8.33;7.00;;;;;13.12;70.31;100640.72;5097788;27;47021;-72
2023/10/23 01:47:26;;;;;;;;;11.33;8.67;;;;;13.10;70.37;100639.06;5082549;27;45619;-72
2023/10/23 01:49:51;;;;;;;;;7.00;5.33;;;;;12.52;70.36;100552.81;5099437;27;45541;-73
2023/10/23 01:52:17;;;;;;;;;7.00;6.33;;;;;13.04;70.10;100634.38;5118650;27;45305;-72
2023/10/23 01:54:46;;;;;;;;;7.67;7.00;;;;;13.06;70.50;100634.22;5118477;27;47059;-72
2023/10/23 01:57:12;;;;;;;;;8.67;8.67;;;;;12.93;70.20;100607.97;5118793;27;45361;-71
2023/10/23 01:59:38;;;;;;;;;6.00;5.33;;;;;12.92;70.42;100605.47;5106530;27;45511;-72
2023/10/23 02:02:04;;;;;;;;;9.33;9.33;;;;;12.92;70.36;100610.81;5097220;27;45404;-72
2023/10/23 02:04:30;;;;;;;;;10.67;7.00;;;;;12.94;69.90;100612.31;5097593;27;45813;-72
2023/10/23 02:06:55;;;;;;;;;8.00;8.00;;;;;12.95;70.74;100624.66;5114659;27;45303;-73
2023/10/23 02:09:21;;;;;;;;;8.67;6.33;;;;;12.94;69.82;100617.66;5118398;27;45200;-72
2023/10/23 02:11:47;;;;;;;;;6.67;6.67;;;;;12.85;70.27;100602.63;5118295;27;45286;-71
2023/10/23 02:14:13;;;;;;;;;8.00;6.67;;;;;12.92;70.51;100610.81;5118266;27;46398;-72
2023/10/23 02:16:39;;;;;;;;;7.33;6.67;;;;;12.72;70.36;100596.91;5117260;27;45394;-72
2023/10/23 02:19:04;;;;;;;;;6.33;6.00;;;;;12.83;70.08;100609.97;5118363;27;45342;-72
2023/10/23 02:21:30;;;;;;;;;7.00;5.00;;;;;12.85;70.86;100615.97;5118537;27;45564;-71
2023/10/23 02:23:55;;;;;;;;;8.00;5.33;;;;;12.77;70.45;100600.75;5118122;27;45563;-71
2023/10/23 02:26:21;;;;;;;;;6.33;6.00;;;;;12.79;70.65;100605.94;5118038;27;45473;-72
2023/10/23 02:28:46;;;;;;;;;5.33;5.00;;;;;12.72;70.74;100591.56;5118111;27;45464;-72
2023/10/23 02:31:12;;;;;;;;;10.00;7.00;;;;;12.73;70.26;100587.91;5100042;27;45581;-72
2023/10/23 02:33:37;;;;;;;;;6.00;6.00;;;;;12.70;70.36;100575.72;5106365;27;46766;-72
2023/10/23 02:36:02;;;;;;;;;5.00;5.00;;;;;12.58;70.01;100557.50;5097541;27;45323;-72
2023/10/23 02:38:28;;;;;;;;;5.00;5.00;;;;;12.78;70.50;100597.09;5097478;27;45312;-72
2023/10/23 02:40:54;;;;;;;;;6.00;6.00;;;;;12.78;70.23;100594.41;5097666;27;45566;-73
2023/10/23 02:43:20;;;;;;;;;8.67;6.67;;;;;12.51;70.33;100540.50;5097358;27;46525;-73
2023/10/23 02:45:46;;;;;;;;;8.00;6.00;;;;;12.69;70.37;100578.56;5097226;27;45274;-73
2023/10/23 02:48:11;;;;;;;;;6.00;6.00;;;;;12.56;70.19;100544.34;5097361;27;45304;-73
2023/10/23 02:50:37;;;;;;;;;6.33;3.67;;;;;12.78;70.25;100585.59;5109262;27;45271;-74
2023/10/23 02:53:05;;;;;;;;;6.00;4.00;;;;;12.69;70.34;100566.06;5116737;27;48210;-73
2023/10/23 02:55:30;;;;;;;;;5.00;5.00;;;;;12.84;69.95;100584.97;5114524;27;45567;-74
2023/10/23 02:57:56;;;;;;;;;7.33;5.00;;;;;12.84;70.09;100579.63;5117178;27;45576;-71
2023/10/23 03:00:21;;;;;;;;;6.33;4.00;;;;;12.86;69.85;100582.13;5117859;27;45492;-72
2023/10/23 03:02:47;;;;;;;;;5.67;4.67;;;;;12.73;69.56;100555.91;5104214;27;46624;-73
2023/10/23 03:05:14;;;;;;;;;3.00;3.00;;;;;12.68;69.47;100542.22;5092069;27;45493;-72
2023/10/23 03:07:39;;;;;;;;;5.00;3.00;;;;;12.86;69.37;100574.94;5117083;27;45362;-76
2023/10/23 03:10:05;;;;;;;;;4.33;3.00;;;;;12.63;69.37;100545.38;5112861;27;54488;-73
2023/10/23 03:12:30;;;;;;;;;7.33;5.00;;;;;12.79;69.35;100576.56;5096909;27;46826;-73
2023/10/23 03:14:55;;;;;;;;;4.67;4.00;;;;;12.83;69.56;100588.63;5100367;27;45276;-73
2023/10/23 03:17:21;;;;;;;;;4.00;4.00;;;;;12.75;69.32;100565.41;5114484;27;45459;-73
2023/10/23 03:19:47;;;;;;;;;5.33;4.00;;;;;12.77;69.35;100565.25;5121347;27;45196;-72
2023/10/23 03:22:12;;;;;;;;;3.00;3.00;;;;;12.83;68.87;100567.28;5121121;27;45575;-73
2023/10/23 03:24:38;;;;;;;;;3.00;3.00;;;;;12.80;69.20;100556.91;5107746;27;45536;-73
2023/10/23 03:27:04;;;;;;;;;6.00;4.00;;;;;12.74;69.32;100552.22;5082009;27;45651;-72
2023/10/23 03:29:29;;;;;;;;;4.33;4.33;;;;;12.71;69.36;100553.41;5113933;27;45468;-73
2023/10/23 03:31:55;;;;;;;;;5.00;4.00;;;;;12.34;69.53;100500.44;5120771;27;46615;-72
2023/10/23 03:34:20;;;;;;;;;3.00;3.00;;;;;12.66;69.39;100562.88;5120671;27;45255;-73
2023/10/23 03:36:45;;;;;;;;;3.00;2.25;;;;;12.57;69.59;100553.16;5120728;27;45529;-73
2023/10/23 03:39:11;;;;;;;;;3.67;2.67;;;;;12.58;69.43;100552.19;5102079;27;45337;-71
2023/10/23 03:41:36;;;;;;;;;2.33;2.33;;;;;12.58;69.72;100552.19;5108227;27;45533;-72
2023/10/23 03:44:02;;;;;;;;;3.25;3.25;;;;;12.60;69.65;100559.00;5099876;27;45325;-72
2023/10/23 03:46:28;;;;;;;;;2.25;2.25;;;;;12.58;69.60;100547.69;5100065;27;45488;-72
2023/10/23 03:48:54;;;;;;;;;2.67;2.00;;;;;12.55;69.37;100533.84;5100315;27;45289;-71
2023/10/23 03:51:20;;;;;;;;;4.33;4.33;;;;;12.61;69.52;100541.19;5099725;27;46625;-72
2023/10/23 03:53:45;;;;;;;;;4.67;2.00;;;;;12.55;69.20;100536.50;5099533;27;45461;-72
2023/10/23 03:56:11;;;;;;;;;6.00;5.00;;;;;11.81;69.58;100426.97;5100049;27;45229;-74
2023/10/23 03:58:36;;;;;;;;;3.00;3.00;;;;;12.11;69.52;100480.69;5112137;27;45680;-74
2023/10/23 04:01:02;;;;;;;;;4.00;3.00;;;;;12.43;69.27;100520.81;5120069;27;46863;-74
2023/10/23 04:03:28;;;;;;;;;3.67;3.33;;;;;12.42;69.42;100516.47;5120307;27;45312;-72
2023/10/23 04:05:53;;;;;;;;;5.00;4.00;;;;;12.42;69.34;100508.47;5120398;27;45505;-73
2023/10/23 04:08:19;;;;;;;;;3.00;3.00;;;;;12.46;69.37;100509.00;5120307;27;45427;-74
2023/10/23 04:10:48;;;;;;;;;3.33;3.00;;;;;12.36;69.45;100493.09;5119887;27;45662;-72
2023/10/23 04:13:15;;;;;;;;;6.00;5.00;;;;;12.10;68.94;100447.88;5120123;27;45465;-72
2023/10/23 04:15:41;;;;;;;;;2.67;1.00;;;;;12.45;69.07;100507.31;5119098;27;45311;-71
2023/10/23 04:18:06;;;;;;;;;2.00;2.00;;;;;12.49;68.85;100517.50;5120098;27;45469;-74
2023/10/23 04:20:31;;;;;;;;;1.33;1.33;;;;;12.48;69.04;100509.66;5101275;27;48337;-74
2023/10/23 04:22:57;;;;;;;;;6.00;4.00;;;;;12.44;68.73;100495.00;5119829;27;45363;-74
2023/10/23 04:25:22;;;;;;;;;4.33;3.00;;;;;12.54;69.11;100510.84;5118854;27;52047;-73
2023/10/23 04:27:47;;;;;;;;;2.00;2.00;;;;;12.43;68.82;100494.16;5120038;27;45465;-74
2023/10/23 04:30:13;;;;;;;;;2.00;2.00;;;;;12.46;69.20;100499.16;5119531;27;46642;-74
2023/10/23 04:32:38;;;;;;;;;2.33;2.00;;;;;12.54;68.80;100502.84;5101160;27;45504;-73
2023/10/23 04:35:04;;;;;;;;;4.00;4.00;;;;;12.55;68.75;100502.66;5101060;27;45299;-72
2023/10/23 04:37:29;;;;;;;;;5.33;3.67;;;;;12.59;68.61;100511.16;5119999;27;45447;-73
2023/10/23 04:39:55;;;;;;;;;2.00;2.00;;;;;12.55;68.48;100504.50;5101168;27;47496;-73
2023/10/23 04:42:20;;;;;;;;;2.50;2.50;;;;;12.45;68.80;100508.16;5119408;27;45508;-74
2023/10/23 04:44:48;;;;;;;;;4.00;2.00;;;;;12.31;68.43;100476.78;5119625;27;45207;-73
2023/10/23 04:47:14;;;;;;;;;1.00;1.00;;;;;12.48;68.58;100505.16;5119733;27;45504;-74
2023/10/23 04:49:39;;;;;;;;;3.33;2.00;;;;;12.46;68.75;100501.00;5119454;27;45722;-74
2023/10/23 04:52:06;;;;;;;;;2.50;2.50;;;;;12.38;68.53;100487.63;5119935;27;45418;-72
2023/10/23 04:54:31;;;;;;;;;2.00;2.00;;;;;12.38;68.81;100485.78;5120121;27;45511;-73
2023/10/23 04:56:56;;;;;;;;;2.00;1.00;;;;;12.46;68.26;100483.16;5119579;27;45530;-73
2023/10/23 04:59:22;;;;;;;;;2.33;2.33;;;;;12.39;68.60;100468.78;5119344;27;45667;-73
2023/10/23 05:01:49;;;;;;;;;4.00;2.33;;;;;12.44;68.96;100479.81;5118955;27;53926;-72
2023/10/23 05:04:14;;;;;;;;;5.00;4.00;;;;;12.34;68.59;100463.13;5101110;27;45416;-74
2023/10/23 05:06:39;;;;;;;;;4.75;3.50;;;;;12.15;68.97;100413.59;5107284;27;45207;-73
2023/10/23 05:09:05;;;;;;;;;6.75;3.75;;;;;12.34;69.12;100449.78;5098466;27;45452;-73
2023/10/23 05:11:31;;;;;;;;;2.00;2.00;;;;;12.38;68.64;100464.44;5098546;27;45472;-73
2023/10/23 05:13:57;;;;;;;;;3.25;2.75;;;;;12.12;69.26;100418.41;5098863;27;45331;-74
2023/10/23 05:16:22;;;;;;;;;2.00;2.00;;;;;12.29;68.87;100440.63;5098769;27;45429;-74
2023/10/23 05:18:47;;;;;;;;;2.00;2.00;;;;;12.35;69.11;100454.13;5079797;27;48577;-73
2023/10/23 05:21:13;;;;;;;;;3.67;2.67;;;;;12.38;68.69;100440.47;5097990;27;48522;-73
2023/10/23 05:23:40;;;;;;;;;3.00;3.00;;;;;12.34;69.57;100431.13;5112169;27;45355;-72
2023/10/23 05:26:06;;;;;;;;;3.67;3.67;;;;;12.35;69.00;100426.63;5104386;27;45482;-72
2023/10/23 05:28:31;;;;;;;;;3.00;1.50;;;;;12.41;69.10;100436.63;5098024;27;46952;-72
2023/10/23 05:30:57;;;;;;;;;5.00;2.00;;;;;12.41;69.07;100428.63;5097668;27;45390;-74
2023/10/23 05:33:23;;;;;;;;;4.00;3.00;;;;;12.41;68.70;100437.50;5098294;27;45488;-71
2023/10/23 05:35:48;;;;;;;;;3.00;1.00;;;;;12.34;68.93;100417.81;5098583;27;45506;-72
2023/10/23 05:38:14;;;;;;;;;4.00;2.00;;;;;12.12;69.06;100381.09;5106640;27;45846;-73
2023/10/23 05:40:39;;;;;;;;;1.25;1.25;;;;;12.45;68.89;100419.34;5116503;27;45238;-71
2023/10/23 05:43:05;;;;;;;;;1.25;1.25;;;;;12.23;68.48;100374.66;5108900;27;45346;-73
2023/10/23 05:45:30;;;;;;;;;2.00;2.00;;;;;12.48;68.52;100414.50;5117567;27;45477;-71
2023/10/23 05:47:56;;;;;;;;;3.00;3.00;;;;;12.46;68.88;100411.16;5118094;27;46403;-74
2023/10/23 05:50:21;;;;;;;;;2.67;2.67;;;;;12.44;68.45;100410.50;5118200;27;45304;-74
2023/10/23 05:52:47;;;;;;;;;4.33;2.67;;;;;12.43;68.78;100403.50;5118776;27;45228;-75
2023/10/23 05:55:12;;;;;;;;;4.67;2.33;;;;;12.46;69.00;100397.84;5100244;27;45460;-73
2023/10/23 05:57:38;;;;;;;;;2.00;2.00;;;;;12.47;68.47;100409.34;5105549;27;45717;-75
2023/10/23 06:00:04;;;;;;;;;2.67;2.00;;;;;12.11;68.29;100337.63;5097873;27;45444;-73
2023/10/23 06:02:32;;;;;;;;;3.00;1.67;;;;;12.32;68.38;100369.16;5087432;27;45941;-73
2023/10/23 06:04:57;;;;;;;;;2.00;2.00;;;;;12.54;68.57;100396.16;5118896;27;45472;-75
2023/10/23 06:07:23;;;;;;;;;3.00;3.00;;;;;12.23;68.34;100340.84;5117910;27;57311;-73
2023/10/23 06:09:49;;;;;;;;;2.33;2.33;;;;;12.54;68.17;100396.16;5118605;27;45394;-74
2023/10/23 06:12:14;;;;;;;;;3.67;2.33;;;;;12.18;68.58;100333.31;5099932;27;45332;-73
2023/10/23 06:14:40;;;;;;;;;3.00;3.00;;;;;12.54;68.16;100393.50;5118844;27;45544;-73
2023/10/23 06:17:06;;;;;;;;;3.67;3.00;;;;;12.49;68.17;100386.84;5118121;27;45794;-72
2023/10/23 06:19:32;;;;;;;;;2.00;2.00;;;;;12.15;68.15;100324.81;5118256;27;45363;-73
2023/10/23 06:21:57;;;;;;;;;2.33;2.00;;;;;12.39;68.47;100369.31;5118344;27;45530;-72
2023/10/23 06:24:23;;;;;;;;;2.00;2.00;;;;;12.54;68.04;100390.84;5118350;27;45308;-73
2023/10/23 06:26:48;;;;;;;;;3.00;3.00;;;;;12.51;68.24;100386.66;5118126;27;46855;-74
2023/10/23 06:29:14;;;;;;;;;2.00;2.00;;;;;12.39;68.42;100377.31;5106613;27;45460;-72
2023/10/23 06:31:39;;;;;;;;;2.33;2.00;;;;;12.53;68.19;100383.84;5097908;27;45296;-73
2023/10/23 06:34:04;;;;;;;;;7.00;3.00;;;;;12.29;67.92;100340.16;5079352;27;45522;-72
2023/10/23 06:36:31;;;;;;;;;1.00;1.00;;;;;12.32;68.20;100334.50;5097454;27;46536;-73
2023/10/23 06:38:57;;;;;;;;;4.33;4.00;;;;;12.61;68.06;100382.00;5078645;27;46081;-72
2023/10/23 06:41:22;;;;;;;;;5.00;3.00;;;;;12.56;67.99;100370.16;5078863;27;45698;-71
2023/10/23 06:43:48;;;;;;;;;5.33;3.33;;;;;12.37;67.95;100331.31;5097489;27;45348;-72
2023/10/23 06:46:16;;;;;;;;;4.00;2.33;;;;;12.68;67.74;100379.53;5116410;27;46052;-72
2023/10/23 06:48:44;;;;;;;;;3.33;2.33;;;;;12.68;67.83;100366.19;5118399;27;45398;-72
2023/10/23 06:51:13;;;;;;;;;2.00;2.00;;;;;12.70;67.47;100369.50;5116750;27;45323;-71
2023/10/23 06:53:39;;;;;;;;;2.33;2.00;;;;;12.42;67.71;100323.69;5117047;27;45501;-70
2023/10/23 06:56:05;;;;;;;;;4.00;4.00;;;;;12.73;67.93;100369.19;5116296;27;46458;-74
2023/10/23 06:58:30;;;;;;;;;1.67;1.67;;;;;12.75;67.57;100367.16;5100801;27;45528;-74
2023/10/23 07:00:55;;;;;;;;;3.00;1.67;;;;;12.51;67.48;100322.69;5102290;27;50849;-79
2023/10/23 07:03:21;;;;;;;;;2.67;1.67;;;;;12.25;67.52;100274.88;5101087;27;45938;-72
2023/10/23 07:05:47;;;;;;;;;3.00;3.00;;;;;12.44;66.90;100295.84;5107244;27;45578;-74
2023/10/23 07:08:13;;;;;;;;;2.00;2.00;;;;;12.82;67.16;100357.53;5099999;27;46211;-72
2023/10/23 07:10:39;;;;;;;;;1.67;1.00;;;;;12.88;67.02;100367.50;5117223;27;45512;-72
2023/10/23 07:13:04;;;;;;;;;1.00;1.00;;;;;12.95;66.53;100365.81;5106021;27;45445;-73
2023/10/23 07:15:34;;;;;;;;;4.33;2.00;;;;;13.01;66.72;100366.97;5100116;27;45746;-74
2023/10/23 07:17:59;;;;;;;;;2.67;1.00;;;;;13.01;66.52;100366.97;5082228;27;45454;-72
2023/10/23 07:20:25;;;;;;;;;1.00;1.00;;;;;12.69;66.46;100319.84;5100201;27;45470;-72
2023/10/23 07:22:50;;;;;;;;;6.00;3.00;;;;;12.82;66.38;100338.00;5101639;27;45409;-72
2023/10/23 07:25:16;;;;;;;;;3.00;3.00;;;;;12.68;66.88;100312.84;5100163;27;46425;-72
2023/10/23 07:27:41;;;;;;;;;2.67;2.00;;;;;12.95;66.95;100355.16;5112685;27;45446;-71
2023/10/23 07:30:07;;;;;;;;;3.00;2.00;;;;;12.96;66.63;100359.47;5104395;27;45539;-71
2023/10/23 07:32:35;;;;;;;;;2.33;2.33;;;;;12.93;66.89;100342.97;5100068;27;45157;-72
2023/10/23 07:35:04;;;;;;;;;3.00;2.00;;;;;13.01;66.73;100346.50;5099798;27;45917;-73
2023/10/23 07:37:30;;;;;;;;;1.33;1.33;;;;;12.67;66.45;100289.84;5086957;27;45532;-71
2023/10/23 07:39:56;;;;;;;;;3.00;3.00;;;;;13.02;66.70;100342.81;5114183;27;45549;-72
2023/10/23 07:42:21;;;;;;;;;2.67;2.00;;;;;13.05;66.61;100337.13;5120833;27;45568;-71
2023/10/23 07:44:47;;;;;;;;;3.67;2.33;;;;;13.03;66.90;100328.47;5101316;27;47699;-72
2023/10/23 07:47:12;;;;;;;;;3.00;2.00;;;;;12.98;66.69;100314.78;5112168;27;45318;-74
2023/10/23 07:49:38;;;;;;;;;3.67;3.00;;;;;13.04;66.49;100324.81;5099868;27;45284;-74
2023/10/23 07:52:03;;;;;;;;;5.00;3.00;;;;;13.08;66.99;100331.47;5106612;27;45528;-73
2023/10/23 07:54:31;;;;;;;;;2.00;2.00;;;;;13.04;66.86;100308.78;5106533;27;46567;-72
2023/10/23 07:56:56;;;;;;;;;2.00;2.00;;;;;13.16;66.94;100311.06;5099184;27;45435;-71
2023/10/23 07:59:23;;;;;;;;;2.25;2.25;;;;;13.19;66.49;100310.75;5080496;27;45533;-72
2023/10/23 08:01:49;;;;;;;;;6.33;6.33;;;;;13.09;66.22;100303.75;5099563;27;45597;-73
2023/10/23 08:04:14;;;;;;;;;5.00;4.00;;;;;13.18;66.26;100306.44;5099108;27;45641;-72
2023/10/23 08:06:39;;;;;;;;;6.33;5.67;;;;;13.23;66.11;100309.44;5098898;27;61608;-72
2023/10/23 08:09:06;;;;;;;;;4.67;3.00;;;;;13.21;65.89;100303.41;5099670;27;45908;-72
2023/10/23 08:11:32;;;;;;;;;3.50;3.50;;;;;13.24;65.81;100303.09;5104271;27;45426;-74
2023/10/23 08:13:58;;;;;;;;;4.67;3.00;;;;;13.28;66.20;100296.41;5090991;27;48279;-75
2023/10/23 08:16:24;;;;;;;;;2.33;2.33;;;;;13.35;65.71;100289.34;5079317;27;45637;-76
2023/10/23 08:18:49;;;;;;;;;4.33;4.00;;;;;13.03;65.29;100227.06;5110020;27;45464;-76
2023/10/23 08:21:15;;;;;;;;;1.33;1.33;;;;;13.50;65.68;100295.63;5117901;27;45508;-77
2023/10/23 08:23:43;;;;;;;;;5.75;4.75;;;;;13.53;65.69;100305.97;5101392;27;47289;-76
2023/10/23 08:26:08;;;;;;;;;4.50;4.00;;;;;13.43;64.80;100269.81;5101585;27;45439;-74
2023/10/23 08:28:34;;;;;;;;;4.00;2.00;;;;;13.65;65.09;100299.25;5101834;27;45494;-74
2023/10/23 08:30:59;;;;;;;;;5.33;4.67;;;;;13.65;64.71;100287.72;5104666;27;45611;-74
2023/10/23 08:33:25;;;;;;;;;2.67;2.67;;;;;13.72;64.86;100286.00;5099193;27;45301;-75
2023/10/23 08:35:50;;;;;;;;;4.00;3.00;;;;;13.61;64.83;100273.88;5112436;27;45529;-76
2023/10/23 08:38:16;;;;;;;;;2.00;2.00;;;;;13.75;64.94;100298.19;5104042;27;45315;-76
2023/10/23 08:40:41;;;;;;;;;5.00;3.25;;;;;13.39;64.68;100224.75;5107181;27;45615;-75
2023/10/23 08:43:09;;;;;;;;;3.33;2.00;;;;;13.72;64.78;100286.00;5087140;27;45610;-76
2023/10/23 08:45:34;;;;;;;;;3.67;3.00;;;;;13.82;64.52;100285.81;5102757;27;45410;-76
2023/10/23 08:48:10;;;;;;;;;2.00;2.00;;;;;13.85;64.26;100280.09;5118962;27;45519;-75
2023/10/23 08:50:37;;;;;;;;;1.75;1.75;;;;;13.90;64.52;100278.56;5119900;27;45388;-75
2023/10/23 08:53:07;;;;;;;;;3.25;3.25;;;;;13.93;64.76;100277.38;5080501;27;47000;-76
2023/10/23 08:55:33;;;;;;;;;2.50;1.50;;;;;13.94;64.12;100263.00;5098590;27;45516;-77
2023/10/23 08:58:03;;;;;;;;;2.75;2.75;;;;;13.68;63.86;100226.75;5080408;27;45527;-75
2023/10/23 09:00:29;;;;;;;;;2.75;1.75;;;;;13.90;63.36;100259.03;5099161;27;45462;-74
2023/10/23 09:02:58;;;;;;;;;3.00;3.00;;;;;13.96;63.73;100261.81;5106026;27;46439;-76
2023/10/23 09:05:24;;;;;;;;;4.00;3.67;;;;;13.66;63.72;100202.06;5102905;27;45543;-75
2023/10/23 09:07:49;;;;;;;;;2.00;2.00;;;;;13.99;63.40;100240.06;5111331;27;46535;-75
2023/10/23 09:10:15;;;;;;;;;3.00;3.00;;;;;13.61;63.50;100182.22;5102870;27;45371;-76
2023/10/23 09:12:40;;;;;;;;;2.00;2.00;;;;;14.00;63.16;100225.69;5117959;27;45719;-75
2023/10/23 09:15:17;;;;;;;;;3.33;2.00;;;;;13.96;63.43;100218.22;5100236;27;45371;-77
2023/10/23 09:17:45;;;;;;;;;1.33;1.33;;;;;14.08;62.76;100243.53;5110365;27;45426;-72
2023/10/23 09:20:19;;;;;;;;;5.00;1.67;;;;;14.02;62.83;100233.56;5090242;27;45364;-72
2023/10/23 09:22:48;;;;;;;;;3.00;3.00;;;;;13.88;62.74;100237.00;5097721;27;45679;-73
2023/10/23 09:25:19;;;;;;;;;3.00;3.00;;;;;13.84;63.05;100231.19;5098271;27;45407;-71
2023/10/23 09:27:45;;;;;;;;;2.00;2.00;;;;;13.91;63.52;100229.44;5079359;27;45608;-73
2023/10/23 09:30:13;;;;;;;;;4.00;2.00;;;;;13.84;63.82;100214.31;5080464;27;45420;-73
2023/10/23 09:32:39;;;;;;;;;3.50;2.00;;;;;13.79;64.09;100214.81;5098613;27;46289;-72
2023/10/23 09:35:06;;;;;;;;;3.33;1.67;;;;;13.87;64.10;100227.31;5110363;27;45428;-72
2023/10/23 09:37:32;;;;;;;;;2.00;2.00;;;;;13.78;64.41;100210.50;5100613;27;45475;-72
2023/10/23 09:40:17;;;;;;;;;4.00;2.00;;;;;13.80;64.66;100213.81;5118760;27;45489;-71
2023/10/23 09:42:43;;;;;;;;;3.00;3.00;;;;;13.67;64.31;100176.19;5110960;27;46274;-73
2023/10/23 09:45:09;;;;;;;;;2.00;2.00;;;;;13.88;64.92;100215.63;5099008;27;45577;-72
2023/10/23 09:47:37;;;;;;;;;2.33;1.00;;;;;13.74;65.02;100200.34;5098982;27;45617;-74
2023/10/23 09:50:03;;;;;;;;;2.00;2.00;;;;;13.85;65.14;100211.47;5096977;27;45459;-72
2023/10/23 09:52:32;;;;;;;;;2.00;2.00;;;;;13.58;65.07;100150.53;5110484;27;45283;-74
2023/10/23 09:55:06;;;;;;;;;1.50;1.50;;;;;13.84;65.36;100190.28;5118781;27;45250;-74
2023/10/23 09:57:45;;;;;;;;;4.50;2.00;;;;;13.94;65.20;100189.00;5115912;27;45578;-75
2023/10/23 10:00:15;;;;;;;;;2.00;2.00;;;;;13.98;65.89;100184.94;5080478;27;45538;-73
2023/10/23 10:02:55;;;;;;;;;3.33;2.00;;;;;14.08;65.70;100168.69;5099614;27;45339;-72
2023/10/23 10:05:56;;;;;;;;;6.00;3.00;;;;;14.15;66.02;100176.81;5118618;27;45208;-75
2023/10/23 10:08:23;;;;;;;;;5.00;3.33;;;;;13.78;65.88;100108.97;5094201;27;45498;-72
2023/10/23 10:10:50;;;;;;;;;1.33;1.33;;;;;14.16;66.69;100149.88;5104651;27;45492;-74
2023/10/23 10:13:16;;;;;;;;;3.67;3.67;;;;;14.34;66.23;100156.72;5098204;27;45625;-75
2023/10/23 10:15:43;;;;;;;;;4.50;2.75;;;;;14.37;66.24;100151.84;5099378;27;45531;-72
2023/10/23 10:18:09;;;;;;;;;2.00;2.00;;;;;14.50;65.75;100156.59;5110413;27;45528;-74
2023/10/23 10:20:37;;;;;;;;;2.25;2.25;;;;;14.30;65.87;100106.31;5106858;27;45501;-73
2023/10/23 10:23:02;;;;;;;;;3.00;3.00;;;;;14.51;65.73;100145.72;5098379;27;46885;-74
2023/10/23 10:25:29;;;;;;;;;2.33;2.33;;;;;14.44;65.82;100136.78;5100618;27;45264;-70
2023/10/23 10:27:56;;;;;;;;;2.67;2.67;;;;;14.44;66.47;100130.59;5098877;27;45277;-71
2023/10/23 10:30:41;;;;;;;;;3.00;3.00;;;;;14.46;66.33;100136.59;5100759;27;45724;-71
2023/10/23 10:33:15;;;;;;;;;4.67;2.00;;;;;14.50;66.52;100137.88;5114238;27;45826;-72
2023/10/23 10:35:47;;;;;;;;;3.00;3.00;;;;;14.56;66.68;100137.13;5107325;27;45257;-69
2023/10/23 10:38:12;;;;;;;;;5.00;3.33;;;;;14.59;66.54;100126.06;5111746;27;45412;-70
2023/10/23 10:41:01;;;;;;;;;2.33;2.33;;;;;14.70;66.27;100130.13;5108239;27;45514;-72
2023/10/23 10:43:41;;;;;;;;;4.00;3.67;;;;;14.71;66.48;100135.28;5104091;27;45865;-71
2023/10/23 10:46:15;;;;;;;;;4.00;3.00;;;;;14.75;67.15;100133.91;5086085;27;45521;-71
2023/10/23 10:48:45;;;;;;;;;2.00;2.00;;;;;14.67;66.45;100120.63;5100033;27;45356;-69
2023/10/23 10:51:29;;;;;;;;;2.33;1.67;;;;;14.73;66.39;100133.25;5099242;27;45536;-69
2023/10/23 10:53:58;;;;;;;;;2.00;2.00;;;;;14.74;66.81;100139.44;5098916;27;47666;-70
2023/10/23 10:56:24;;;;;;;;;3.50;2.00;;;;;14.61;66.56;100138.22;5100884;27;45306;-70
2023/10/23 10:58:49;;;;;;;;;2.25;2.25;;;;;14.63;66.83;100135.41;5096730;27;45554;-69
2023/10/23 11:01:15;;;;;;;;;4.67;3.67;;;;;14.64;67.32;100130.88;5101345;27;45252;-71
2023/10/23 11:03:43;;;;;;;;;1.50;1.50;;;;;14.55;66.83;100122.94;5081150;27;46346;-70
2023/10/23 11:06:09;;;;;;;;;2.00;2.00;;;;;14.20;67.46;100075.47;5097919;27;45438;-74
2023/10/23 11:08:34;;;;;;;;;4.50;2.50;;;;;14.49;68.31;100106.81;5104275;27;45530;-69
2023/10/23 11:11:06;;;;;;;;;1.00;0.67;;;;;14.41;68.25;100094.28;5119983;27;45451;-70
2023/10/23 11:13:34;;;;;;;;;2.67;2.00;;;;;14.42;68.75;100096.00;5105113;27;47424;-71
2023/10/23 11:16:00;;;;;;;;;3.33;3.33;;;;;14.35;69.02;100094.22;5081403;27;45383;-72
2023/10/23 11:18:29;;;;;;;;;4.00;2.67;;;;;14.14;69.54;100061.03;5100909;27;45565;-70
2023/10/23 11:20:59;;;;;;;;;3.33;1.67;;;;;14.28;69.81;100088.78;5120912;27;45336;-71